Terminal Aerodrome Forecast
Issued by NWS

Home | Current Version | Previous Version | Graphics & Text | Print | Product List | Glossary On
Versions: 1 2 3 4 5 6 7 8 9 10 11 12 13 14 15 16 17 18 19 20 21 22 23 24 25 26 27 28
000
FTUS43 KLOT 241515 AAA
TAFORD
TAF AMD
KORD 241515Z 2415/2518 08012KT P6SM SCT015 BKN100
     FM241800 10010KT P6SM OVC015
      TEMPO 2418/2420 -RA
     FM250000 11013G18KT P6SM VCSH OVC008
     FM250300 13015G25KT 2SM -SHRA BR OVC006
     FM250700 25022G33KT P6SM BKN020
     FM251300 25018G28KT P6SM SKC=

USA.gov is the U.S. government's official web portal to all federal, state and local government web resources and services.